Time;durP1;ratioP1;P1;durP2;ratioP2;P2;SDS_P1;SDS_P2;PMS_P1;PMS_P2;Temp;Humidity;BMP_temperature;BMP_pressure;BME280_temperature;BME280_humidity;BME280_pressure;Samples;Min_cycle;Max_cycle;Signal;HPM_P1;HPM_P2
2023/12/25 00:00:35;;;;;;;0.30;0.30;;;14.70;73.00;;;;;;5001236;28;20504;-81
2023/12/25 00:03:00;;;;;;;0.57;0.50;;;14.70;73.00;;;;;;4981989;28;20128;-81
2023/12/25 00:05:26;;;;;;;0.57;0.50;;;14.80;72.80;;;;;;4960340;28;20055;-81
2023/12/25 00:07:51;;;;;;;0.40;0.40;;;14.80;72.80;;;;;;5004341;28;20041;-80
2023/12/25 00:10:17;;;;;;;0.40;0.32;;;14.80;72.80;;;;;;4976377;28;20031;-81
2023/12/25 00:12:43;;;;;;;0.40;0.40;;;14.80;73.60;;;;;;4978463;28;20511;-81
2023/12/25 00:15:09;;;;;;;0.82;0.50;;;14.80;72.80;;;;;;5001465;28;20475;-81
2023/12/25 00:17:34;;;;;;;1.30;0.63;;;14.80;72.70;;;;;;5014599;28;20037;-81
2023/12/25 00:20:00;;;;;;;0.50;0.40;;;14.80;72.60;;;;;;5015133;28;20065;-81
2023/12/25 00:22:25;;;;;;;0.85;0.55;;;14.80;72.70;;;;;;5000753;28;20107;-81
2023/12/25 00:24:51;;;;;;;0.63;0.50;;;14.80;72.90;;;;;;5013525;28;20061;-87
2023/12/25 00:27:16;;;;;;;0.35;0.30;;;14.80;72.80;;;;;;5020519;28;20121;-88
2023/12/25 00:29:42;;;;;;;0.50;0.47;;;14.80;72.80;;;;;;5012363;28;20038;-87
2023/12/25 00:32:07;;;;;;;0.55;0.32;;;14.80;72.60;;;;;;5017174;28;20104;-88
2023/12/25 00:34:33;;;;;;;0.55;0.30;;;14.80;72.70;;;;;;5010471;28;20037;-87
2023/12/25 00:36:59;;;;;;;0.70;0.40;;;14.80;72.70;;;;;;5009040;28;20042;-87
2023/12/25 00:39:25;;;;;;;0.60;0.40;;;14.80;73.50;;;;;;5018016;28;20124;-87
2023/12/25 00:41:50;;;;;;;0.45;0.43;;;14.80;72.60;;;;;;5014258;28;20038;-87
2023/12/25 00:44:16;;;;;;;0.43;0.43;;;14.80;72.80;;;;;;5016155;28;20042;-87
2023/12/25 00:46:42;;;;;;;0.40;0.40;;;14.80;72.80;;;;;;5008043;28;20072;-86
2023/12/25 00:49:08;;;;;;;0.32;0.30;;;14.80;72.80;;;;;;5017375;28;20042;-87
2023/12/25 00:51:33;;;;;;;0.57;0.40;;;14.80;72.90;;;;;;5019112;28;20041;-87
2023/12/25 00:54:00;;;;;;;0.35;0.35;;;14.80;72.80;;;;;;5016096;28;20411;-87
2023/12/25 00:56:25;;;;;;;0.60;0.43;;;14.80;72.80;;;;;;5016238;28;20487;-88
2023/12/25 00:58:51;;;;;;;0.50;0.50;;;14.80;72.70;;;;;;4996975;28;20101;-87
2023/12/25 01:01:16;;;;;;;0.50;0.43;;;14.80;72.80;;;;;;5014264;28;20425;-87
2023/12/25 01:03:42;;;;;;;0.40;0.40;;;14.80;72.80;;;;;;5014543;28;20069;-84
2023/12/25 01:06:08;;;;;;;0.50;0.50;;;14.80;72.80;;;;;;5014706;28;20049;-87
2023/12/25 01:08:33;;;;;;;0.57;0.55;;;14.80;72.80;;;;;;5011369;28;20066;-87
2023/12/25 01:11:02;;;;;;;0.68;0.45;;;14.80;73.00;;;;;;5010611;28;20038;-87
2023/12/25 01:13:28;;;;;;;0.32;0.28;;;14.80;72.80;;;;;;5014112;28;20162;-87
2023/12/25 01:15:53;;;;;;;0.65;0.40;;;14.80;72.80;;;;;;5019195;28;20741;-87
2023/12/25 01:18:19;;;;;;;0.65;0.30;;;14.80;73.10;;;;;;5018234;28;20041;-87
2023/12/25 01:20:46;;;;;;;0.30;0.30;;;14.80;72.80;;;;;;5013507;28;20046;-87
2023/12/25 01:23:12;;;;;;;0.30;0.30;;;14.80;72.90;;;;;;5017201;28;20677;-87
2023/12/25 01:25:37;;;;;;;0.30;0.30;;;14.80;72.80;;;;;;5015831;28;20153;-86
2023/12/25 01:28:03;;;;;;;0.40;0.40;;;14.80;72.80;;;;;;5010884;28;20050;-87
2023/12/25 01:30:29;;;;;;;0.30;0.30;;;14.80;72.90;;;;;;5017569;28;20107;-88
2023/12/25 01:32:54;;;;;;;0.50;0.50;;;14.80;72.80;;;;;;5013498;28;20045;-88
2023/12/25 01:35:20;;;;;;;0.35;0.30;;;14.80;72.80;;;;;;5014722;28;20132;-87
2023/12/25 01:37:46;;;;;;;0.30;0.30;;;14.80;72.80;;;;;;5017275;28;20060;-87
2023/12/25 01:40:12;;;;;;;0.70;0.30;;;14.80;72.80;;;;;;5012783;28;20050;-87
2023/12/25 01:42:41;;;;;;;0.30;0.30;;;14.80;72.90;;;;;;5016568;28;20045;-87
2023/12/25 01:45:07;;;;;;;0.20;0.20;;;14.70;73.20;;;;;;5014067;28;20071;-87
2023/12/25 01:47:33;;;;;;;0.30;0.20;;;14.80;72.90;;;;;;5007051;28;20037;-87
2023/12/25 01:50:00;;;;;;;0.30;0.30;;;14.80;72.90;;;;;;4997067;28;20037;-87
2023/12/25 01:52:26;;;;;;;0.52;0.20;;;14.70;73.00;;;;;;4994118;28;20040;-87
2023/12/25 01:54:52;;;;;;;0.60;0.30;;;14.70;73.00;;;;;;4995489;28;20094;-87
2023/12/25 01:57:18;;;;;;;0.52;0.40;;;14.70;73.20;;;;;;4997233;28;20466;-88
2023/12/25 01:59:44;;;;;;;0.50;0.40;;;14.70;73.20;;;;;;5001010;28;20095;-87
2023/12/25 02:02:09;;;;;;;0.43;0.43;;;14.70;73.30;;;;;;4991416;28;20050;-87
2023/12/25 02:04:35;;;;;;;0.50;0.30;;;14.70;73.20;;;;;;5016997;28;20132;-87
2023/12/25 02:07:01;;;;;;;0.40;0.30;;;14.70;73.20;;;;;;5011659;28;20125;-87
2023/12/25 02:09:27;;;;;;;0.40;0.20;;;14.80;73.20;;;;;;5021441;28;20033;-87
2023/12/25 02:11:53;;;;;;;0.47;0.30;;;14.80;73.00;;;;;;5013245;28;20468;-87
2023/12/25 02:14:18;;;;;;;0.20;0.20;;;14.80;73.00;;;;;;5010239;28;20117;-88
2023/12/25 02:16:44;;;;;;;0.32;0.28;;;14.80;72.80;;;;;;4997745;28;20388;-87
2023/12/25 02:19:29;;;;;;;0.30;0.30;;;14.80;72.90;;;;;;5002329;28;20042;-87
2023/12/25 02:21:56;;;;;;;0.40;0.40;;;14.80;72.90;;;;;;5016433;28;24776;-87
2023/12/25 02:24:24;;;;;;;0.73;0.30;;;14.80;73.10;;;;;;5000272;28;20046;-87
2023/12/25 02:26:50;;;;;;;0.35;0.22;;;14.80;73.00;;;;;;4993408;28;20036;-87
2023/12/25 02:29:15;;;;;;;0.38;0.30;;;14.80;73.70;;;;;;5005085;28;20038;-88
2023/12/25 02:31:41;;;;;;;0.50;0.30;;;14.80;73.00;;;;;;4993729;28;20026;-87
2023/12/25 02:34:06;;;;;;;0.55;0.55;;;14.70;73.20;;;;;;5015547;28;20057;-88
2023/12/25 02:36:32;;;;;;;0.30;0.20;;;14.70;73.20;;;;;;5022033;28;20107;-87
2023/12/25 02:38:57;;;;;;;0.25;0.25;;;14.80;73.20;;;;;;5006559;28;20046;-87
2023/12/25 02:41:23;;;;;;;0.35;0.25;;;14.70;73.20;;;;;;5012139;28;20046;-88
2023/12/25 02:43:48;;;;;;;0.40;0.20;;;14.70;73.20;;;;;;5011540;28;20060;-88
2023/12/25 02:46:14;;;;;;;0.40;0.20;;;14.80;74.00;;;;;;5010500;28;20041;-87
2023/12/25 02:48:39;;;;;;;0.30;0.20;;;14.70;73.40;;;;;;5018814;28;20041;-87
2023/12/25 02:51:05;;;;;;;0.50;0.40;;;14.70;73.60;;;;;;5008786;28;20042;-87
2023/12/25 02:53:31;;;;;;;0.20;0.20;;;14.70;73.40;;;;;;5013101;28;20107;-87
2023/12/25 02:55:56;;;;;;;0.35;0.20;;;14.70;73.30;;;;;;5008611;28;20116;-87
2023/12/25 02:58:22;;;;;;;0.50;0.40;;;14.70;73.30;;;;;;5004972;28;20078;-87
2023/12/25 03:00:47;;;;;;;0.38;0.32;;;14.70;73.20;;;;;;5018321;28;20041;-87
2023/12/25 03:03:13;;;;;;;0.20;0.20;;;14.80;73.40;;;;;;5002113;28;20046;-87
2023/12/25 03:05:40;;;;;;;0.30;0.30;;;14.80;73.30;;;;;;4991357;28;20499;-87
2023/12/25 03:08:06;;;;;;;0.20;0.20;;;14.80;73.20;;;;;;4992507;28;20129;-87
2023/12/25 03:10:31;;;;;;;0.32;0.20;;;14.70;73.30;;;;;;5003038;28;20153;-87
2023/12/25 03:12:57;;;;;;;0.25;0.20;;;14.70;73.30;;;;;;4992705;28;20134;-87
2023/12/25 03:15:23;;;;;;;0.30;0.20;;;14.70;73.50;;;;;;5000506;28;20057;-88
2023/12/25 03:17:48;;;;;;;0.10;0.10;;;14.70;73.50;;;;;;4998924;28;20045;-87
2023/12/25 03:20:14;;;;;;;0.30;0.30;;;14.70;73.40;;;;;;5017704;28;20054;-88
2023/12/25 03:22:40;;;;;;;0.25;0.25;;;14.80;73.50;;;;;;5016965;28;20049;-87
2023/12/25 03:25:06;;;;;;;0.55;0.40;;;14.70;73.60;;;;;;5020199;28;20543;-88
2023/12/25 03:27:31;;;;;;;0.20;0.20;;;14.70;73.60;;;;;;5017075;28;20049;-87
2023/12/25 03:29:57;;;;;;;0.30;0.30;;;14.70;73.50;;;;;;4999919;28;20037;-86
2023/12/25 03:32:22;;;;;;;0.30;0.20;;;14.70;73.50;;;;;;5018463;28;20491;-87
2023/12/25 03:34:49;;;;;;;0.32;0.28;;;14.70;73.40;;;;;;5013934;28;20045;-87
2023/12/25 03:37:15;;;;;;;0.20;0.20;;;14.70;73.30;;;;;;5017606;28;20125;-87
2023/12/25 03:39:41;;;;;;;0.45;0.20;;;14.80;73.30;;;;;;5017511;28;20050;-88
2023/12/25 03:42:06;;;;;;;0.30;0.20;;;14.80;73.20;;;;;;5016970;28;20036;-87
2023/12/25 03:44:32;;;;;;;0.13;0.10;;;14.80;73.10;;;;;;5013426;28;20053;-88
2023/12/25 03:46:57;;;;;;;0.32;0.10;;;14.80;73.10;;;;;;5012646;28;20046;-87
2023/12/25 03:49:23;;;;;;;0.20;0.15;;;14.80;73.20;;;;;;5017309;28;20038;-87
2023/12/25 03:51:48;;;;;;;0.17;0.17;;;14.70;74.00;;;;;;5019653;28;20045;-87
2023/12/25 03:54:14;;;;;;;0.30;0.20;;;14.80;73.20;;;;;;5015854;28;20136;-88
2023/12/25 03:56:39;;;;;;;0.30;0.20;;;14.80;73.00;;;;;;5016357;28;21167;-88
2023/12/25 03:59:05;;;;;;;0.10;0.10;;;14.80;72.90;;;;;;5019016;28;20041;-88
2023/12/25 04:01:31;;;;;;;0.20;0.20;;;14.80;73.00;;;;;;5016622;28;20065;-87
2023/12/25 04:03:56;;;;;;;0.10;0.10;;;14.80;73.10;;;;;;5014002;28;20053;-87
2023/12/25 04:06:23;;;;;;;0.28;0.28;;;14.80;73.20;;;;;;5017862;28;20049;-88
2023/12/25 04:08:49;;;;;;;0.30;0.17;;;14.80;73.20;;;;;;5015775;28;20037;-87
2023/12/25 04:11:21;;;;;;;0.10;0.10;;;14.70;73.10;;;;;;5011494;28;20046;-87
2023/12/25 04:13:48;;;;;;;0.57;0.20;;;14.70;73.20;;;;;;5014099;28;20048;-88
2023/12/25 04:16:23;;;;;;;0.20;0.10;;;14.80;74.10;;;;;;5009800;28;20149;-88
2023/12/25 04:18:49;;;;;;;0.20;0.20;;;14.80;73.20;;;;;;5017329;28;20026;-87
2023/12/25 04:21:27;;;;;;;0.10;0.10;;;14.70;73.20;;;;;;5019258;28;20585;-88
2023/12/25 04:23:54;;;;;;;0.40;0.20;;;14.70;73.40;;;;;;5006634;28;20045;-87
2023/12/25 04:26:20;;;;;;;0.10;0.10;;;14.70;73.20;;;;;;4993952;28;20045;-87
2023/12/25 04:28:47;;;;;;;0.20;0.20;;;14.70;73.20;;;;;;4989645;28;20124;-87
2023/12/25 04:31:12;;;;;;;0.75;0.20;;;14.70;73.20;;;;;;5017477;28;20057;-87
2023/12/25 04:33:38;;;;;;;0.20;0.20;;;14.70;73.50;;;;;;5018843;28;20038;-87
2023/12/25 04:36:04;;;;;;;0.40;0.20;;;14.70;73.30;;;;;;5012301;28;20171;-87
2023/12/25 04:38:29;;;;;;;0.15;0.15;;;14.70;73.20;;;;;;5009095;28;20121;-87
2023/12/25 04:40:55;;;;;;;0.20;0.20;;;14.70;73.30;;;;;;5009160;28;20189;-87
2023/12/25 04:43:21;;;;;;;0.28;0.20;;;14.70;73.20;;;;;;5014915;28;20042;-88
2023/12/25 04:45:46;;;;;;;0.20;0.20;;;14.70;73.30;;;;;;5019173;28;20030;-87
2023/12/25 04:48:12;;;;;;;0.10;0.10;;;14.70;73.30;;;;;;5016734;28;20049;-87
2023/12/25 04:50:38;;;;;;;0.30;0.10;;;14.70;73.20;;;;;;5017994;28;20046;-87
2023/12/25 04:53:04;;;;;;;0.20;0.10;;;14.70;73.20;;;;;;5015115;28;20046;-88
2023/12/25 04:55:29;;;;;;;0.17;0.17;;;14.70;73.20;;;;;;5013810;28;20116;-87
2023/12/25 04:57:55;;;;;;;0.15;0.10;;;14.70;73.20;;;;;;5011478;28;20041;-80
2023/12/25 05:00:22;;;;;;;0.30;0.10;;;14.70;73.20;;;;;;5018866;28;20052;-86
2023/12/25 05:02:47;;;;;;;0.50;0.13;;;14.70;73.20;;;;;;5011874;28;20052;-87
2023/12/25 05:05:13;;;;;;;0.17;0.10;;;14.70;73.00;;;;;;5013754;28;20050;-86
2023/12/25 05:07:38;;;;;;;0.20;0.20;;;14.70;72.90;;;;;;5019197;28;20411;-87
2023/12/25 05:10:04;;;;;;;0.30;0.10;;;14.70;73.20;;;;;;5019530;28;20504;-87
2023/12/25 05:12:30;;;;;;;0.20;0.20;;;14.70;73.00;;;;;;5017873;28;20045;-87
2023/12/25 05:14:56;;;;;;;0.10;0.10;;;14.70;73.10;;;;;;5016351;28;20539;-87
2023/12/25 05:17:21;;;;;;;0.25;0.13;;;14.70;73.20;;;;;;4992911;28;20415;-88
2023/12/25 05:19:47;;;;;;;0.10;0.05;;;14.70;73.40;;;;;;5005014;28;20464;-87
2023/12/25 05:22:13;;;;;;;0.10;0.10;;;14.70;73.30;;;;;;5012381;28;20045;-87
2023/12/25 05:24:38;;;;;;;0.20;0.20;;;14.70;73.20;;;;;;5016656;28;20030;-87
2023/12/25 05:27:04;;;;;;;0.52;0.20;;;14.70;73.20;;;;;;5015505;28;20500;-87
2023/12/25 05:29:30;;;;;;;0.20;0.15;;;14.70;73.30;;;;;;5015074;28;20658;-87
2023/12/25 05:31:57;;;;;;;0.20;0.20;;;14.70;73.30;;;;;;5013928;28;20121;-87
2023/12/25 05:34:22;;;;;;;0.55;0.32;;;14.70;73.20;;;;;;5011496;28;20060;-87
2023/12/25 05:36:48;;;;;;;0.60;0.32;;;14.70;73.30;;;;;;5015763;28;20042;-87
2023/12/25 05:39:13;;;;;;;0.57;0.30;;;14.70;73.20;;;;;;5016347;28;20129;-87
2023/12/25 05:41:40;;;;;;;0.40;0.22;;;14.70;73.20;;;;;;4994034;28;20507;-87
2023/12/25 05:44:06;;;;;;;0.30;0.10;;;14.70;73.10;;;;;;5009961;28;20064;-87
2023/12/25 05:46:31;;;;;;;0.50;0.30;;;14.70;73.20;;;;;;5016722;28;20069;-87
2023/12/25 05:48:57;;;;;;;0.90;0.32;;;14.60;73.30;;;;;;5017503;28;20038;-87
2023/12/25 05:51:23;;;;;;;0.32;0.20;;;14.70;73.20;;;;;;5018961;28;20052;-87
2023/12/25 05:53:48;;;;;;;0.30;0.10;;;14.60;73.20;;;;;;5013188;28;20567;-87
2023/12/25 05:56:14;;;;;;;0.20;0.20;;;14.70;73.20;;;;;;5010354;28;20042;-88
2023/12/25 05:58:39;;;;;;;0.20;0.20;;;14.70;74.10;;;;;;5013096;28;20037;-87
2023/12/25 06:01:06;;;;;;;0.30;0.20;;;14.70;73.30;;;;;;5011544;28;20041;-86
2023/12/25 06:03:32;;;;;;;0.10;0.10;;;14.70;74.00;;;;;;4992088;28;20064;-87
2023/12/25 06:05:58;;;;;;;0.32;0.13;;;14.70;73.20;;;;;;5017028;28;20576;-86
2023/12/25 06:08:24;;;;;;;0.70;0.30;;;14.60;73.10;;;;;;5007354;28;20041;-87
2023/12/25 06:10:50;;;;;;;0.30;0.15;;;14.60;73.30;;;;;;4988168;28;20049;-88
2023/12/25 06:13:15;;;;;;;0.10;0.10;;;14.60;73.30;;;;;;5015716;28;20052;-87
2023/12/25 06:15:41;;;;;;;0.60;0.22;;;14.70;73.30;;;;;;5012636;28;20137;-87
2023/12/25 06:18:07;;;;;;;0.10;0.10;;;14.70;73.10;;;;;;5015741;28;20050;-87
2023/12/25 06:20:32;;;;;;;0.10;0.10;;;14.70;73.20;;;;;;5010991;28;20059;-87
2023/12/25 06:22:58;;;;;;;0.13;0.13;;;14.70;73.20;;;;;;5010567;28;20065;-88
2023/12/25 06:25:23;;;;;;;0.77;0.40;;;14.70;73.20;;;;;;5017070;28;20057;-88
2023/12/25 06:27:49;;;;;;;0.30;0.20;;;14.70;73.30;;;;;;5015284;28;20390;-88
2023/12/25 06:30:14;;;;;;;0.13;0.10;;;14.70;73.20;;;;;;5014382;28;20069;-88
2023/12/25 06:32:43;;;;;;;0.57;0.22;;;14.60;73.40;;;;;;5015002;28;20057;-88
2023/12/25 06:35:09;;;;;;;0.38;0.20;;;14.60;74.00;;;;;;4993854;28;20049;-88
2023/12/25 06:37:34;;;;;;;0.22;0.20;;;14.60;73.30;;;;;;4996350;28;20034;-88
2023/12/25 06:40:01;;;;;;;0.20;0.20;;;14.60;73.40;;;;;;5013543;28;20045;-88
2023/12/25 06:42:27;;;;;;;0.60;0.28;;;14.60;73.40;;;;;;5023280;28;20034;-88
2023/12/25 06:44:53;;;;;;;0.30;0.30;;;14.60;73.50;;;;;;5016299;28;20417;-89
2023/12/25 06:47:18;;;;;;;0.55;0.20;;;14.60;73.60;;;;;;5019795;28;20512;-89
2023/12/25 06:49:44;;;;;;;0.20;0.15;;;14.60;73.50;;;;;;5021068;28;20485;-89
2023/12/25 06:52:09;;;;;;;0.52;0.15;;;14.60;73.40;;;;;;5015710;28;20475;-88
2023/12/25 06:54:35;;;;;;;0.20;0.20;;;14.60;73.20;;;;;;5020795;28;20563;-88
2023/12/25 06:57:00;;;;;;;0.20;0.10;;;14.60;73.30;;;;;;5017685;28;20038;-88
2023/12/25 06:59:26;;;;;;;0.55;0.32;;;14.60;73.30;;;;;;5015473;28;20022;-88
2023/12/25 07:01:51;;;;;;;0.30;0.22;;;14.60;73.50;;;;;;5011952;28;20677;-88
2023/12/25 07:04:17;;;;;;;0.43;0.30;;;14.60;73.50;;;;;;5015088;28;20045;-88
2023/12/25 07:06:43;;;;;;;0.17;0.10;;;14.60;73.60;;;;;;5018878;28;20042;-89
2023/12/25 07:09:14;;;;;;;0.40;0.25;;;14.60;73.60;;;;;;5021176;28;20040;-87
2023/12/25 07:11:40;;;;;;;0.50;0.20;;;14.60;73.70;;;;;;5014407;28;20069;-89
2023/12/25 07:14:06;;;;;;;0.28;0.25;;;14.60;73.70;;;;;;4997892;28;20061;-88
2023/12/25 07:16:31;;;;;;;0.43;0.20;;;14.50;73.60;;;;;;5015563;28;20203;-89
2023/12/25 07:18:57;;;;;;;0.40;0.20;;;14.60;73.70;;;;;;5018017;28;20050;-88
2023/12/25 07:21:22;;;;;;;0.30;0.20;;;14.50;73.60;;;;;;5021918;28;20466;-88
2023/12/25 07:23:48;;;;;;;0.40;0.20;;;14.60;73.70;;;;;;5017094;28;20038;-88
2023/12/25 07:26:16;;;;;;;0.20;0.20;;;14.60;73.40;;;;;;5014247;28;20041;-89
2023/12/25 07:28:42;;;;;;;0.60;0.32;;;14.70;73.40;;;;;;4999261;28;20407;-88
2023/12/25 07:31:07;;;;;;;0.45;0.20;;;14.70;73.20;;;;;;4998068;28;20046;-88
2023/12/25 07:33:34;;;;;;;0.38;0.20;;;14.70;73.20;;;;;;5017720;28;20443;-89
2023/12/25 07:36:00;;;;;;;0.50;0.30;;;14.60;73.40;;;;;;4995741;28;20499;-89
2023/12/25 07:38:26;;;;;;;0.28;0.15;;;14.60;73.40;;;;;;5016831;28;20069;-89
2023/12/25 07:40:51;;;;;;;0.22;0.22;;;14.60;73.20;;;;;;5013453;28;20045;-89
2023/12/25 07:43:17;;;;;;;0.70;0.32;;;14.70;73.30;;;;;;5017630;28;20048;-88
2023/12/25 07:45:43;;;;;;;1.42;0.25;;;14.60;73.40;;;;;;5018089;28;20085;-89
2023/12/25 07:48:09;;;;;;;0.40;0.30;;;14.60;73.40;;;;;;5014192;28;20040;-88
2023/12/25 07:50:34;;;;;;;0.20;0.20;;;14.60;73.80;;;;;;5013818;28;20025;-90
2023/12/25 07:53:00;;;;;;;0.25;0.20;;;14.60;73.60;;;;;;5015546;28;20045;-88
2023/12/25 07:55:25;;;;;;;1.52;0.20;;;14.60;73.50;;;;;;5014272;28;20144;-88
2023/12/25 07:57:51;;;;;;;1.10;0.20;;;14.60;73.80;;;;;;5020626;28;20041;-87
2023/12/25 08:00:17;;;;;;;0.22;0.22;;;14.60;73.60;;;;;;5021525;28;20057;-88
2023/12/25 08:02:42;;;;;;;0.20;0.20;;;14.60;73.60;;;;;;5020697;28;20049;-90
2023/12/25 08:05:08;;;;;;;0.35;0.20;;;14.60;73.60;;;;;;4997899;28;20099;-87
2023/12/25 08:07:34;;;;;;;0.50;0.20;;;14.60;73.60;;;;;;4996125;28;20053;-88
2023/12/25 08:10:00;;;;;;;0.20;0.17;;;14.60;73.70;;;;;;5015494;28;20579;-88
2023/12/25 08:12:25;;;;;;;0.63;0.30;;;14.60;73.50;;;;;;4991892;28;20181;-88
2023/12/25 08:14:51;;;;;;;0.60;0.40;;;14.60;74.40;;;;;;5013435;28;20499;-88
2023/12/25 08:17:17;;;;;;;0.45;0.35;;;14.60;73.60;;;;;;5016237;28;20407;-87
2023/12/25 08:19:42;;;;;;;0.50;0.22;;;14.60;73.40;;;;;;5015465;28;20407;-88
2023/12/25 08:22:08;;;;;;;0.60;0.50;;;14.60;73.40;;;;;;5017155;28;20511;-88
2023/12/25 08:24:35;;;;;;;0.63;0.40;;;14.60;73.40;;;;;;5017841;28;20112;-88
2023/12/25 08:27:00;;;;;;;0.47;0.22;;;14.60;73.30;;;;;;5015653;28;20045;-88
2023/12/25 08:29:26;;;;;;;0.40;0.30;;;14.60;73.30;;;;;;4990700;28;20507;-88
2023/12/25 08:31:52;;;;;;;0.73;0.30;;;14.60;73.30;;;;;;4656404;28;10000022;-87
2023/12/25 08:34:17;;;;;;;0.50;0.32;;;14.60;73.30;;;;;;5011496;28;20061;-86
2023/12/25 08:36:43;;;;;;;6.32;2.65;;;14.70;73.30;;;;;;5014865;28;20483;-90
2023/12/25 08:39:08;;;;;;;5.50;4.07;;;14.70;73.50;;;;;;5008529;28;20075;-85
2023/12/25 08:41:34;;;;;;;2.47;2.28;;;14.80;73.10;;;;;;5013065;28;20042;-84
2023/12/25 08:44:00;;;;;;;3.00;2.17;;;14.80;72.70;;;;;;5007954;28;20048;-88
2023/12/25 08:46:26;;;;;;;3.40;1.98;;;14.80;73.10;;;;;;5014738;28;20053;-87
2023/12/25 08:48:52;;;;;;;83.10;54.83;;;14.80;72.90;;;;;;5013777;28;20053;-86
2023/12/25 08:51:18;;;;;;;207.20;136.32;;;14.80;72.90;;;;;;5015275;28;20041;-86
2023/12/25 08:53:44;;;;;;;141.02;92.30;;;14.90;72.60;;;;;;5014521;28;20571;-90
2023/12/25 08:56:10;;;;;;;104.35;71.25;;;14.90;72.90;;;;;;5019427;28;20048;-87
2023/12/25 08:58:36;;;;;;;68.00;45.97;;;14.90;72.50;;;;;;5011197;28;20038;-85
2023/12/25 09:01:05;;;;;;;44.70;30.80;;;14.90;72.40;;;;;;4669077;28;10000323;-88
2023/12/25 09:03:30;;;;;;;36.45;24.55;;;15.10;72.10;;;;;;4990278;28;20054;-87
2023/12/25 09:05:56;;;;;;;30.52;21.33;;;15.00;72.10;;;;;;5013571;28;20042;-87
2023/12/25 09:08:23;;;;;;;27.60;19.00;;;15.10;72.10;;;;;;5011038;28;20044;-87
2023/12/25 09:10:49;;;;;;;24.08;17.33;;;15.10;72.10;;;;;;5011071;28;20121;-87
2023/12/25 09:13:14;;;;;;;22.45;16.20;;;15.10;72.00;;;;;;5012070;28;20053;-86
2023/12/25 09:15:40;;;;;;;20.17;15.10;;;15.20;71.90;;;;;;5012674;28;20064;-87
2023/12/25 09:18:05;;;;;;;24.48;16.13;;;15.20;71.60;;;;;;4986054;28;20044;-86
2023/12/25 09:20:31;;;;;;;21.33;15.20;;;15.30;71.50;;;;;;4971096;28;20432;-87
2023/12/25 09:22:57;;;;;;;18.65;14.27;;;15.30;71.40;;;;;;5006974;28;20065;-88
2023/12/25 09:25:22;;;;;;;19.95;15.45;;;15.40;71.40;;;;;;4978395;28;20038;-87
2023/12/25 09:27:48;;;;;;;20.40;14.85;;;15.50;71.00;;;;;;5017001;28;20096;-89
2023/12/25 09:30:14;;;;;;;19.70;15.10;;;15.50;71.00;;;;;;5006078;28;20041;-88
2023/12/25 09:32:40;;;;;;;18.25;14.35;;;15.50;70.90;;;;;;4988474;28;20057;-88
2023/12/25 09:35:08;;;;;;;18.58;14.00;;;15.60;70.70;;;;;;5007648;28;20053;-87
2023/12/25 09:37:33;;;;;;;18.58;14.27;;;15.60;70.40;;;;;;4990779;28;20131;-86
2023/12/25 09:39:59;;;;;;;17.90;12.75;;;15.70;70.60;;;;;;4990864;28;20176;-86
2023/12/25 09:42:25;;;;;;;16.35;13.38;;;15.70;70.20;;;;;;5015495;28;20532;-86
2023/12/25 09:44:50;;;;;;;16.08;12.60;;;15.90;69.80;;;;;;4991875;28;20119;-87
2023/12/25 09:47:16;;;;;;;13.32;11.27;;;16.00;69.70;;;;;;4989494;28;20463;-87
2023/12/25 09:49:42;;;;;;;14.70;11.70;;;16.00;69.60;;;;;;5010767;28;20061;-87
2023/12/25 09:52:08;;;;;;;13.25;10.63;;;16.00;69.60;;;;;;4975981;28;20500;-89
2023/12/25 09:54:33;;;;;;;15.05;11.25;;;16.00;69.70;;;;;;4995821;28;20591;-87
2023/12/25 09:56:59;;;;;;;13.43;10.80;;;16.00;69.50;;;;;;4975547;28;20045;-88
2023/12/25 09:59:26;;;;;;;13.77;11.38;;;16.00;69.70;;;;;;4993664;28;20103;-87
2023/12/25 10:01:51;;;;;;;13.05;10.55;;;16.00;69.60;;;;;;4971808;28;20046;-88
2023/12/25 10:04:17;;;;;;;12.93;10.38;;;16.10;69.50;;;;;;4972039;28;20420;-87
2023/12/25 10:06:43;;;;;;;12.88;10.50;;;16.20;69.30;;;;;;5001716;28;20065;-86
2023/12/25 10:09:09;;;;;;;12.48;9.75;;;16.10;69.20;;;;;;4990199;28;20131;-87
2023/12/25 10:11:35;;;;;;;12.32;9.40;;;16.20;69.20;;;;;;4989692;28;20389;-87
2023/12/25 10:14:02;;;;;;;10.55;9.15;;;16.30;69.00;;;;;;5010125;28;20060;-88
2023/12/25 10:16:28;;;;;;;12.18;9.27;;;16.40;68.80;;;;;;4991601;28;20073;-88
2023/12/25 10:18:55;;;;;;;10.77;9.25;;;16.40;68.50;;;;;;4993572;28;20061;-88
2023/12/25 10:21:21;;;;;;;9.90;8.88;;;16.50;68.40;;;;;;5012033;28;20496;-85
2023/12/25 10:23:47;;;;;;;11.52;9.27;;;16.50;68.20;;;;;;4992336;28;20297;-88
2023/12/25 10:26:13;;;;;;;12.63;9.10;;;16.50;68.30;;;;;;4998233;28;20511;-86
2023/12/25 10:28:38;;;;;;;9.63;7.88;;;16.50;68.40;;;;;;5009791;28;20091;-87
2023/12/25 10:31:05;;;;;;;9.50;8.50;;;16.50;68.30;;;;;;4995664;28;20277;-89
2023/12/25 10:33:31;;;;;;;9.55;8.55;;;16.60;68.40;;;;;;4994662;28;20587;-87
2023/12/25 10:36:07;;;;;;;8.90;8.07;;;16.70;68.60;;;;;;4995372;28;20129;-88
2023/12/25 10:38:40;;;;;;;8.80;7.63;;;16.70;67.80;;;;;;4989075;28;20049;-87
2023/12/25 10:41:19;;;;;;;8.10;7.30;;;16.70;67.80;;;;;;5003453;28;20234;-87
2023/12/25 10:43:52;;;;;;;9.70;7.30;;;16.80;67.50;;;;;;4970581;28;20057;-89
2023/12/25 10:46:34;;;;;;;9.63;7.30;;;16.80;67.50;;;;;;4993254;28;20050;-87
2023/12/25 10:49:00;;;;;;;8.80;6.97;;;16.90;67.30;;;;;;4994358;28;20070;-87
2023/12/25 10:51:34;;;;;;;7.90;7.07;;;16.90;67.30;;;;;;4999510;28;20049;-85
2023/12/25 10:54:00;;;;;;;7.85;7.15;;;17.00;67.20;;;;;;4976393;28;20053;-88
2023/12/25 10:56:26;;;;;;;7.90;7.13;;;17.10;67.10;;;;;;4966754;28;20046;-86
2023/12/25 10:58:52;;;;;;;7.57;6.70;;;17.10;66.80;;;;;;4967125;28;20041;-88
2023/12/25 11:01:25;;;;;;;7.35;6.75;;;17.10;66.90;;;;;;4967054;28;20392;-87
2023/12/25 11:03:54;;;;;;;7.30;5.85;;;17.20;66.80;;;;;;4966435;28;20606;-89
2023/12/25 11:06:21;;;;;;;6.38;5.78;;;17.20;66.50;;;;;;4981023;28;20051;-88
2023/12/25 11:08:46;;;;;;;7.65;6.50;;;17.30;66.50;;;;;;4967153;28;20049;-88
2023/12/25 11:11:15;;;;;;;6.40;5.80;;;17.30;66.40;;;;;;4966781;28;20210;-87
2023/12/25 11:13:41;;;;;;;17.05;6.57;;;17.30;66.30;;;;;;4970344;28;21643;-88
2023/12/25 11:16:08;;;;;;;5.47;5.05;;;17.40;66.10;;;;;;4976800;28;20042;-88
2023/12/25 11:18:39;;;;;;;5.82;5.32;;;17.50;66.00;;;;;;4962398;28;20057;-89
2023/12/25 11:21:09;;;;;;;6.70;5.28;;;17.50;65.90;;;;;;4990303;28;20068;-88
2023/12/25 11:23:36;;;;;;;6.35;5.75;;;17.50;66.10;;;;;;4988560;28;20050;-89
2023/12/25 11:26:03;;;;;;;5.82;5.32;;;17.60;65.90;;;;;;4973898;28;20049;-87
2023/12/25 11:28:31;;;;;;;6.03;5.25;;;17.60;65.90;;;;;;4972448;28;20076;-90
2023/12/25 11:30:56;;;;;;;5.72;5.25;;;17.60;66.00;;;;;;4973827;28;20067;-87
2023/12/25 11:33:22;;;;;;;5.35;4.90;;;17.60;66.00;;;;;;4972900;28;20057;-87
2023/12/25 11:35:47;;;;;;;7.18;5.38;;;17.60;65.90;;;;;;4956517;28;20061;-86
2023/12/25 11:38:19;;;;;;;6.00;4.97;;;17.70;65.60;;;;;;4993689;28;20046;-86
2023/12/25 11:40:51;;;;;;;5.55;5.05;;;17.70;65.70;;;;;;5024858;28;20050;-87
2023/12/25 11:43:20;;;;;;;5.05;4.63;;;17.70;65.70;;;;;;5006084;28;20053;-87
2023/12/25 11:45:46;;;;;;;4.50;4.07;;;17.70;65.90;;;;;;4980190;28;20053;-87
2023/12/25 11:48:12;;;;;;;4.28;3.95;;;17.70;65.70;;;;;;4995238;28;20046;-88
2023/12/25 11:50:38;;;;;;;4.05;3.75;;;17.80;65.70;;;;;;4986911;28;20100;-89
2023/12/25 11:53:03;;;;;;;4.35;3.95;;;17.80;65.70;;;;;;4991192;28;20038;-88
2023/12/25 11:55:29;;;;;;;4.32;3.92;;;17.90;65.50;;;;;;4988162;28;20435;-88
2023/12/25 11:57:55;;;;;;;4.10;3.75;;;17.80;65.60;;;;;;4970078;28;20427;-88
2023/12/25 12:00:22;;;;;;;3.80;3.50;;;17.90;65.60;;;;;;5004032;28;20046;-88
2023/12/25 12:02:48;;;;;;;4.43;4.03;;;17.90;65.60;;;;;;4981647;28;20054;-88
2023/12/25 12:05:14;;;;;;;4.03;3.72;;;17.90;65.50;;;;;;5004928;28;20053;-88
2023/12/25 12:07:39;;;;;;;3.33;3.13;;;18.00;65.50;;;;;;4987236;28;20053;-88
2023/12/25 12:10:06;;;;;;;5.47;3.90;;;18.00;65.20;;;;;;4955461;28;20056;-88
2023/12/25 12:12:31;;;;;;;3.75;3.45;;;18.00;65.20;;;;;;4975789;28;20115;-87
2023/12/25 12:14:57;;;;;;;3.78;3.35;;;18.00;65.20;;;;;;4981798;28;20511;-87
2023/12/25 12:17:22;;;;;;;3.15;2.95;;;18.00;65.30;;;;;;4991216;28;20065;-87
2023/12/25 12:19:48;;;;;;;3.45;3.15;;;18.00;65.20;;;;;;4984739;28;20125;-88
2023/12/25 12:22:16;;;;;;;4.00;3.67;;;18.00;65.40;;;;;;4962186;28;20049;-88
2023/12/25 12:24:42;;;;;;;3.55;3.35;;;18.00;65.50;;;;;;4991646;28;20109;-88
2023/12/25 12:27:08;;;;;;;3.08;2.75;;;18.00;65.50;;;;;;4981851;28;20046;-87
2023/12/25 12:29:34;;;;;;;3.10;2.90;;;18.00;66.50;;;;;;5013950;28;20050;-87
2023/12/25 12:32:00;;;;;;;2.85;2.65;;;18.00;65.50;;;;;;5005236;28;20093;-87
2023/12/25 12:34:26;;;;;;;2.78;2.58;;;18.00;65.50;;;;;;4973660;28;20539;-88
2023/12/25 12:37:04;;;;;;;3.58;2.53;;;18.00;65.80;;;;;;4974367;28;20046;-89